Keauhou, HI (96739)

11:06 PM HST on August 30, 2015 (GMT -1000)
Pualani Estates | | Change Station
CLOSE
Current Station
Personal Weather Station
Location: Kailua-Kona, HI
Elevation: 420 ft
Nearby Weather Stations

Elev 420 ft 19.62 °N, 155.97 °W | Updated 1 minute ago

Overcast
Overcast
77.9 °F
Feels Like 80 °F
N
0.2
Wind Variable Wind from SSE
Gusts 2.5 mph

Today
High -- | Low -- °F
--% Chance of Precip.
Yesterday
High -- | Low -- °F
Precip. -- in
6:08 AM 6:40 PM
Waning Gibbous, 96% visible
Pressure 29.88 in
Visibility 10.0 miles
Clouds Mostly Cloudy 3700 ft
Overcast 5500 ft
Heat Index 80 °F
Dew Point 73 °F
Humidity 84%
Rainfall in
Snow Depth Not available.
UV 0.0 out of 12
Pollen Not available.
Air Quality Not available.
Flu Activity Not available.
METAR PHKO 310753Z 08005KT 10SM BKN037 OVC055 29/23 A2987 RMK AO2 SLP116 T02890233
Pressure 29.88 in
Visibility 10.0 miles
Clouds Mostly Cloudy 3700 ft
Overcast 5500 ft
Heat Index 80 °F
Dew Point 73 °F
Humidity 84%
Rainfall in
Snow Depth Not available.
UV 0.0 out of 12
Pollen Not available.
Air Quality Not available.
Flu Activity Not available.
METAR PHKO 310753Z 08005KT 10SM BKN037 OVC055 29/23 A2987 RMK AO2 SLP116 T02890233

10-Day Weather Forecast

×

Almanac

Astronomy

Aug. 30, 2015 Rise Set
Actual Time
Civil Twilight
Nautical Twilight
Astronomical Twilight
Moon
Length of Visible Light
Length of Day
Tomorrow will be .
, % of the Moon is Illuminated

Today's Extremes

State Highs State Lows

Community

WunderPhotos

Upload Photos

1,851,227 photos uploaded!

WunderBlogs® & News

Nearby

Air Quality

  Air Quality AQ Index Pollutant
Not available.

Snow Depth

Station Depth Elevation

Earthquake Activity

City Distance Mag. Time & Date
Minimum magnitude displayed is 2.5.

Coastal Water Temperatures

Place Temperature

Stations

Nearby Weather Stations

Station Location Temp. Windchill Dew Point Humidity Wind Precip. Elev Updated Type